AirNav   TITAN Aviation Fuels
 
 523 users online  

KLDJ Linden Airport
Linden, New Jersey, USA

GOING TO LINDEN?


FAA INFORMATION EFFECTIVE 17 JUNE 2021

Location

FAA Identifier: LDJ
Lat/Long: 40-37-02.8180N 074-14-40.5390W
40-37.046967N 074-14.675650W
40.6174494,-74.2445942
(estimated)
Elevation: 22 ft. / 6.7 m (surveyed)
Variation: 13W (2000)
From city: 1 mile SE of LINDEN, NJ
Time zone: UTC -4 (UTC -5 during Standard Time)
Zip code: 07036

Airport Operations

Airport use: Open to the public
Activation date: 10/1942
Control tower: no
ARTCC: NEW YORK CENTER
FSS: MILLVILLE FLIGHT SERVICE STATION
NOTAMs facility: MIV (NOTAM-D service available)
Attendance: OCT-APR 0830-1800, MAY-SEP 0700-2030
Wind indicator: lighted
Segmented circle: yes
Lights: ACTVT MIRL RY 09/27; VASI RYS 09 & 27; AND REILS RYS 09 & 27- CTAF.
Beacon: white-green (lighted land airport)
Operates sunset to sunrise.
Landing fee: yes

Airport Communications

CTAF/UNICOM: 123.0
WX AWOS-3: 124.025 (908-862-7383)
NEW YORK APPROACH: 135.35
NEW YORK DEPARTURE: 119.2 126.7
CLEARANCE DELIVERY: 127.25
WX ASOS at EWR (6 nm NE): PHONE 973-621-2892
WX AWOS-3PT at JRB (12 nm NE): 128.175 (212-425-1534)
WX AWOS-3 at MMU (13 nm NW): PHONE 973-290-0135
WX ASOS at CDW (16 nm N): 135.5 (973-575-4417)
WX ASOS at TEB (16 nm NE): PHONE 201-393-0855
WX ASOS at SMQ (19 nm W): 120.6 (908-722-2139)
WX ASOS at LGA (19 nm NE): PHONE 718-672-6317
  • CLEARANCE DELIVERY PRVDD ON FREQ 127.25 BY NEWARK ATCT, OR CTC NEW YORK APCH AT 800-645-3206.

Nearby radio navigation aids

VOR radial/distance  VOR name  Freq  Var
CRIr282/16.0CANARSIE VOR/DME112.3011W
TEBr222/16.2TETERBORO VOR/DME108.4011W
COLr359/18.8COLTS NECK VOR/DME115.4011W
LGAr252/19.8LA GUARDIA VOR/DME113.1012W
JFKr280/21.6KENNEDY VOR/DME115.9012W
SBJr095/22.7SOLBERG VOR/DME112.9010W
RBVr035/27.4ROBBINSVILLE VORTAC113.8010W
BWZr123/28.4BROADWAY VOR/DME114.2011W
SAXr165/30.1SPARTA VORTAC115.7011W
STWr140/36.3STILLWATER VOR/DME109.6011W
ARDr064/37.3YARDLEY VOR/DME108.2010W
GXUr036/39.9MC GUIRE VORTAC110.6012W

 
NDB name  Hdg/Dist  Freq  Var  ID
CHATHAM144/11.225413WCAT -.-. .- -
TORBY216/12.321412WTE - .
LAKEHURST018/34.639611WNEL -. . .-..
BABYLON279/39.327514WBBN -... -... -.

Airport Services

Fuel available: 100LL JET-A
Parking: hangars and tiedowns
Airframe service: MINOR
Powerplant service: MINOR
Bottled oxygen: NONE
Bulk oxygen: NONE

Runway Information

Runway 9/27

Dimensions: 4140 x 100 ft. / 1262 x 30 m
Surface: asphalt, in good condition
Weight bearing capacity: 
Single wheel: 31.5
Double wheel: 42.0
Runway edge lights: medium intensity
RUNWAY 9  RUNWAY 27
Latitude: 40-36.962650N40-37.131270N
Longitude: 074-15.109072W074-14.242217W
Elevation: 21.9 ft.17.9 ft.
Traffic pattern: leftleft
Runway heading: 089 magnetic, 076 true269 magnetic, 256 true
Displaced threshold: 462 ft.541 ft.
Markings: nonprecision, in fair conditionbasic, in fair condition
Visual slope indicator: 2-box VASI on right (3.80 degrees glide path)
VASI IS BAFFLED TO CUT OFF THE LGT BEAM AT 6 DEGS EACH SIDE OF RY CNTRLN EXTDD; TOTAL USBL WIDTH IS 12 DEGS.
2-box VASI on left (3.25 degrees glide path)
Runway end identifier lights: yesyes
Touchdown point: yes, no lightsyes, no lights
Obstructions: 32 ft. pole, 352 ft. from runway, 30 ft. right of centerline, 4:1 slope to clear
APCH RATIO 25:1 TO DSPLCD THLD BASED ON 32 FT POLE 812 FT FM DSPLCD THLD.
47 ft. ant, 554 ft. from runway, 100 ft. right of centerline, 7:1 slope to clear
APCH RATIO23:1 TO DSPLCD THLD BASED ON 47 FT ANTENNA 1097 FT FM DSPLCD THLD.

Airport Ownership and Management from official FAA records

Ownership: Publicly-owned
Owner: CITY OF LINDEN
1101 WEST EDGAR RD
LINDEN, NJ 07036
Phone 908-862-5557
Manager: PAUL DUDLEY
1101 WEST EDGAR RD
LINDEN, NJ 07036
Phone 908-862-5557

Airport Operational Statistics

Aircraft based on the field: 27
Single engine airplanes: 23
Multi engine airplanes: 1
Helicopters: 3
    
Aircraft operations: avg 154/day *
61% local general aviation
38% transient general aviation
<1% military
* for 12-month period ending 02 April 2019

Additional Remarks

TPA 800 FT MSL; RY 9 ENTER TFC PAT UPWIND - ENTRIES OTR RYS STD.
MAIN NORTH TWY CLSD INDEFLY.
DEER & BIRDS ON & INVOF APRT.
DEPG RY 27 DEP STRAIGHT OUT TO 800 FT.
NOISE ABATEMENT PROCEDURES IN EFFECT.
TOUCH & GO LANDINGS FOR BASE ASSIGNED ACFT; ALL OTHERS CTC AMGR (908) 862-8800 FOR PPR.
RY 09/27 RWY SHOULDER MARKINGS NSTD.
MAIN NORTH TWY CLSD INDEFLY.

Instrument Procedures

NOTE: All procedures below are presented as PDF files. If you need a reader for these files, you should download the free Adobe Reader.

NOT FOR NAVIGATION. Please procure official charts for flight.
FAA instrument procedures published for use from 17 June 2021 at 0901Z to 15 July 2021 at 0900Z.

 
STARs - Standard Terminal Arrivals
JAIKE THREE (RNAV)   download (229KB)
MAZIE THREE (RNAV)   download (201KB)
WILKES-BARRE FOUR **CHANGED**   download (226KB)
 
IAPs - Instrument Approach Procedures
GPS-A   download (213KB)
NOTE: Special Take-Off Minimums/Departure Procedures apply   download (442KB)

Other nearby airports with instrument procedures:

KEWR - Newark Liberty International Airport (6 nm NE)
KJRB - Downtown Manhattan/Wall Street Heliport (12 nm NE)
KMMU - Morristown Municipal Airport (13 nm NW)
KJRA - West 30th St Heliport (14 nm NE)
6N5 - East 34th Street Heliport (14 nm NE)
KCDW - Essex County Airport (16 nm N)
KTEB - Teterboro Airport (16 nm NE)
47N - Central Jersey Regional Airport (17 nm W)
3N6 - Old Bridge Airport (18 nm S)
KSMQ - Somerset Airport (19 nm W)
 
Loc | Ops | Rwys | IFR | FBO | Links
Com | Nav | Svcs | Stats | Notes
Area around KLDJ (Linden Airport)
 
Road maps at: MapQuest Bing Google
 
Aerial photo
WARNING: Photo may not be current or correct
Aerial photo of KLDJ (Linden Airport)
Photo by AirNav, LLC
Photo taken 14-Sep-2013
looking west.

Do you have a better or more recent aerial photo of Linden Airport that you would like to share? If so, please send us your photo.

 
Sectional chart

 
Airport distance calculator
Flying to Linden Airport? Find the distance to fly.

From to KLDJ

Sunrise and sunset
Times for 19-Jun-2021
 Local
(UTC-4)
 Zulu
(UTC)
Morning civil twilight04:5308:53
Sunrise05:2709:27
Sunset20:3000:30
Evening civil twilight21:0301:03

Current date and time
Zulu (UTC)  19-Jun-2021 07:08:00
Local (UTC-4)  19-Jun-2021 03:08:00
 
METAR
KLDJ 190655Z AUTO 27004KT 5SM RA SCT027 BKN046 OVC100 20/16 A2986 RMK AO2 LTG DSNT NE AND SW P0003 T01950160
KEWR 
5nm NE 
190651Z 23013KT 9SM -RA BKN070 OVC120 21/16 A2984 RMK SLP104 P0001 T02110156
KJRB 
12nm NE 
190656Z AUTO 26010KT 10SM -RA FEW050 SCT065 OVC090 21/16 A2986 RMK AO2 RAB04E20B49 SLP111 P0000 T02110161
KMMU 
13nm NW 
190655Z AUTO 16004KT 10SM RA SCT070 SCT080 BKN100 18/17 A2982 RMK AO2 LTG DSNT S
KCDW 
16nm N 
190653Z AUTO VRB05KT 7SM -RA FEW070 SCT085 BKN110 21/16 A2983 RMK AO2 RAB23 SLP104 P0001 T02110161
KNYC 
16nm NE 
190651Z AUTO 9SM -RA OVC095 19/16 A2987 RMK AO2 RAB13 SLP106 P0009 T01890161
KTEB 
17nm NE 
190615Z 21010KT 10SM BKN090 OVC100 22/15 A2983
KLGA 
19nm NE 
190651Z 22009KT 10SM FEW040 OVC085 22/15 A2984 RMK AO2 LTG DSNT NW RAB20E38 SLP104 P0006 T02220150
KSMQ 
19nm W 
ASOS 120.60 908-722-2139
190653Z AUTO 18003KT 3SM BR FEW075 SCT090 BKN110 18/17 A2981 RMK AO2 LTG DSNT S RAE53 PRESFR SLP094 P0013 T01830172
TAF
KEWR 
5nm NE 
190520Z 1906/2012 20012KT P6SM VCSH FEW050 BKN100 FM190700 22010KT P6SM -SHRA BKN050 TEMPO 1907/1910 4SM -TSRA BR BKN050CB FM191000 23009KT P6SM SCT050 BKN250 FM191400 27010KT P6SM SCT050 BKN250 FM191800 26012G19KT P6SM FEW050 BKN200 FM200000 26009KT P6SM SCT050 BKN100 PROB30 2000/2003 5SM -TSRA BKN050CB FM200600 27006KT P6SM SCT050 BKN150
KTEB 
17nm NE 
190520Z 1906/2012 21009KT P6SM VCSH FEW080 BKN150 FM190700 21008KT P6SM -SHRA SCT050 BKN080 TEMPO 1907/1910 4SM -TSRA BR BKN050CB FM191000 22006KT P6SM SCT050 BKN250 FM191400 26009KT P6SM SCT050 BKN250 FM191800 26011G17KT P6SM FEW050 BKN200 FM200000 27007KT P6SM SCT050 BKN100 PROB30 2000/2003 5SM -TSRA BKN050CB FM200500 VRB04KT P6SM SCT050 BKN150
KLGA 
19nm NE 
190520Z 1906/2012 21011KT P6SM VCSH FEW050 BKN150 FM190700 22010KT P6SM -SHRA BKN050 TEMPO 1907/1910 4SM -TSRA BR BKN050CB FM191000 23011KT P6SM SCT050 BKN250 FM191600 26013KT P6SM FEW050 BKN250 FM191900 25013G19KT P6SM FEW050 BKN200 FM200000 25010KT P6SM SCT050 BKN100 PROB30 2000/2003 5SM -TSRA BKN050CB FM200600 27007KT P6SM SCT050 BKN150
NOTAMs
Click for the latest NOTAMs
NOTAMs are issued by the DoD/FAA and will open in a separate window not controlled by AirNav.

 

 
 

FBO, Fuel Providers, and Aircraft Ground Support

  
 Business Name 
 
 Contact 
 
 Services / Description 
 
Fuel Prices
 
Comments
  
Linden Air Services 908-862-5557
no information available

If you are affiliated with Linden Air Services and would like to show here your services, contact info, web link, logo, and more, click here
100LL Jet A
FS $6.90 $6.88 
 Updated 17-Jun-2021
 
   2 read write
FS=Full service
Update Fuel Prices
 

Aviation Businesses, Services, and Facilities

  
 Business Name 
 
 Contact 
 
 Services / Description 
 
Distance
 
Comments
  
Richmond Pilots 718-946-9535
718-987-5862
[web site]
[email]
Flying club

More info about Richmond Pilots
on airport  
   write
 

Would you like to see your business listed on this page?

 If your business provides an interesting product or service to pilots, flight crews, aircraft, or users of the Linden Airport, you should consider listing it here.  To start the listing process, click on the button below
 
Add a business
 

Other Pages about Linden Airport

www.lindenairportnj.com
 
Update a link
 
Copyright © AirNav, LLC. All rights reserved. Privacy Policy  Contact